createdAt,value
2023-10-26T00:01:20.652Z,95402.80
2023-10-26T00:03:49.134Z,95397.00
2023-10-26T00:06:17.340Z,95396.80
2023-10-26T00:08:45.797Z,95405.60
2023-10-26T00:11:13.930Z,95398.00
2023-10-26T00:13:42.070Z,95396.80
2023-10-26T00:16:10.154Z,95387.40
2023-10-26T00:18:38.284Z,95390.20
2023-10-26T00:21:06.471Z,95386.00
2023-10-26T00:23:34.483Z,95392.20
2023-10-26T00:26:02.666Z,95392.20
2023-10-26T00:28:30.801Z,95395.00
2023-10-26T00:30:58.865Z,95400.20
2023-10-26T00:33:26.963Z,95395.40
2023-10-26T00:35:55.434Z,95390.60
2023-10-26T00:38:23.562Z,95387.40
2023-10-26T00:40:51.575Z,95383.80
2023-10-26T00:43:21.714Z,95381.40
2023-10-26T00:45:53.485Z,95374.80
2023-10-26T00:48:21.932Z,95383.60
2023-10-26T00:50:50.437Z,95388.60
2023-10-26T00:53:19.887Z,95387.20
2023-10-26T00:55:50.561Z,95386.40
2023-10-26T00:58:19.152Z,95384.40
2023-10-26T01:00:47.257Z,95369.20
2023-10-26T01:03:15.991Z,95359.40
2023-10-26T01:05:44.218Z,95354.80
2023-10-26T01:08:12.146Z,95350.40
2023-10-26T01:10:40.145Z,95358.80
2023-10-26T01:13:09.597Z,95352.00
2023-10-26T01:15:37.737Z,95355.20
2023-10-26T01:18:07.359Z,95351.40
2023-10-26T01:20:36.097Z,95342.60
2023-10-26T01:23:04.706Z,95338.60
2023-10-26T01:25:32.896Z,95344.40
2023-10-26T01:28:00.925Z,95352.00
2023-10-26T01:30:29.561Z,95352.00
2023-10-26T01:32:57.942Z,95350.60
2023-10-26T01:35:25.976Z,95354.20
2023-10-26T01:37:55.777Z,95357.60
2023-10-26T01:40:23.934Z,95357.40
2023-10-26T01:42:52.126Z,95366.40
2023-10-26T01:45:20.502Z,95363.20
2023-10-26T01:47:48.740Z,95363.80
2023-10-26T01:50:17.097Z,95366.40
2023-10-26T01:52:45.345Z,95364.40
2023-10-26T01:55:13.453Z,95362.80
2023-10-26T01:57:41.471Z,95368.00
2023-10-26T02:00:10.160Z,95362.00
2023-10-26T02:02:42.643Z,95358.00
2023-10-26T02:05:10.918Z,95358.20
2023-10-26T02:07:39.214Z,95345.80
2023-10-26T02:10:07.538Z,95343.20
2023-10-26T02:12:35.652Z,95342.00
2023-10-26T02:15:04.731Z,95340.80
2023-10-26T02:17:32.853Z,95337.80
2023-10-26T02:20:01.227Z,95344.40
2023-10-26T02:22:29.307Z,95345.20
2023-10-26T02:24:57.436Z,95348.20
2023-10-26T02:27:25.489Z,95355.60
2023-10-26T02:29:53.801Z,95351.60
2023-10-26T02:32:22.095Z,95357.60
2023-10-26T02:34:50.304Z,95355.80
2023-10-26T02:37:19.774Z,95348.80
2023-10-26T02:39:47.942Z,95345.60
2023-10-26T02:42:16.126Z,95340.60
2023-10-26T02:44:45.542Z,95346.20
2023-10-26T02:47:13.907Z,95338.20
2023-10-26T02:49:42.121Z,95341.80
2023-10-26T02:52:10.163Z,95347.40
2023-10-26T02:54:38.331Z,95346.20
2023-10-26T02:57:06.630Z,95338.20
2023-10-26T02:59:35.598Z,95344.80
2023-10-26T03:02:03.789Z,95345.00
2023-10-26T03:04:32.620Z,95343.20
2023-10-26T03:07:00.800Z,95345.80
2023-10-26T03:09:29.785Z,95345.60
2023-10-26T03:11:57.951Z,95347.00
2023-10-26T03:14:26.305Z,95356.60
2023-10-26T03:16:54.423Z,95358.00
2023-10-26T03:19:23.549Z,95357.60
2023-10-26T03:21:51.824Z,95361.40
2023-10-26T03:24:19.984Z,95361.80
2023-10-26T03:26:47.940Z,95362.80
2023-10-26T03:29:16.182Z,95363.60
2023-10-26T03:31:45.395Z,95362.00
2023-10-26T03:34:13.480Z,95353.00
2023-10-26T03:36:42.412Z,95344.80
2023-10-26T03:39:10.592Z,95354.20
2023-10-26T03:41:39.865Z,95352.40
2023-10-26T03:44:09.431Z,95346.00
2023-10-26T03:46:37.364Z,95362.80
2023-10-26T03:49:05.532Z,95366.00
2023-10-26T03:51:33.613Z,95352.00
2023-10-26T03:54:01.826Z,95339.60
2023-10-26T03:56:30.250Z,95341.00
2023-10-26T03:58:58.457Z,95327.60
2023-10-26T04:01:26.526Z,95327.40
2023-10-26T04:03:55.099Z,95333.40
2023-10-26T04:06:23.252Z,95333.00
2023-10-26T04:08:51.330Z,95329.00
2023-10-26T04:11:19.676Z,95323.60
2023-10-26T04:13:47.795Z,95314.20
2023-10-26T04:16:16.660Z,95315.00
2023-10-26T04:18:44.848Z,95311.60
2023-10-26T04:21:12.992Z,95316.60
2023-10-26T04:23:41.266Z,95309.40
2023-10-26T04:26:10.381Z,95309.00
2023-10-26T04:28:50.867Z,95302.20
2023-10-26T04:31:21.509Z,95295.00
2023-10-26T04:33:50.037Z,95303.80
2023-10-26T04:36:20.435Z,95299.00
2023-10-26T04:38:48.642Z,95305.60
2023-10-26T04:41:16.795Z,95308.80
2023-10-26T04:43:44.821Z,95301.40
2023-10-26T04:46:12.912Z,95301.80
2023-10-26T04:48:41.114Z,95299.60
2023-10-26T04:51:10.008Z,95306.40
2023-10-26T04:53:38.020Z,95297.20
2023-10-26T04:56:06.592Z,95295.00
2023-10-26T04:58:34.652Z,95291.60
2023-10-26T05:01:03.258Z,95292.20
2023-10-26T05:03:31.543Z,95296.80
2023-10-26T05:05:59.999Z,95290.40
2023-10-26T05:08:28.354Z,95303.80
2023-10-26T05:10:56.531Z,95288.80
2023-10-26T05:13:25.337Z,95284.80
2023-10-26T05:15:53.547Z,95289.20
2023-10-26T05:18:21.767Z,95291.80
2023-10-26T05:20:52.664Z,95290.60
2023-10-26T05:23:20.895Z,95291.80
2023-10-26T05:25:49.402Z,95290.20
2023-10-26T05:28:17.701Z,95291.40
2023-10-26T05:30:45.706Z,95293.80
2023-10-26T05:33:13.753Z,95299.00
2023-10-26T05:35:42.106Z,95297.20
2023-10-26T05:38:11.113Z,95298.00
2023-10-26T05:40:39.175Z,95304.00
2023-10-26T05:43:07.497Z,95299.20
2023-10-26T05:45:41.394Z,95301.40
2023-10-26T05:48:11.863Z,95301.40
2023-10-26T05:50:43.104Z,95309.20
2023-10-26T05:53:11.356Z,95309.60
2023-10-26T05:55:40.800Z,95316.60
2023-10-26T05:58:11.576Z,95322.40
2023-10-26T06:00:39.908Z,95316.00
2023-10-26T06:03:08.661Z,95314.40
2023-10-26T06:05:37.068Z,95311.00
2023-10-26T06:08:05.351Z,95315.60
2023-10-26T06:10:33.960Z,95315.20
2023-10-26T06:13:03.671Z,95310.80
2023-10-26T06:15:31.960Z,95315.40
2023-10-26T06:18:00.344Z,95322.60
2023-10-26T06:20:30.990Z,95317.20
2023-10-26T06:22:59.299Z,95314.80
2023-10-26T06:25:29.400Z,95322.20
2023-10-26T06:27:58.609Z,95316.60
2023-10-26T06:30:27.052Z,95313.20
2023-10-26T06:32:55.441Z,95313.20
2023-10-26T06:35:23.671Z,95309.00
2023-10-26T06:37:51.829Z,95314.80
2023-10-26T06:40:20.030Z,95320.40
2023-10-26T06:42:48.028Z,95322.40
2023-10-26T06:45:16.222Z,95320.40
2023-10-26T06:47:44.356Z,95320.40
2023-10-26T06:50:12.478Z,95318.80
2023-10-26T06:52:40.712Z,95318.00
2023-10-26T06:55:24.022Z,95323.40
2023-10-26T06:57:58.725Z,95330.60
2023-10-26T07:00:27.396Z,95330.80
2023-10-26T07:02:56.029Z,95335.00
2023-10-26T07:05:24.562Z,95337.80
2023-10-26T07:07:52.892Z,95344.20
2023-10-26T07:10:21.201Z,95348.60
2023-10-26T07:12:49.525Z,95348.00
2023-10-26T07:15:17.924Z,95349.00
2023-10-26T07:17:46.306Z,95352.40
2023-10-26T07:20:14.518Z,95357.60
2023-10-26T07:22:44.007Z,95357.20
2023-10-26T07:25:12.372Z,95360.40
2023-10-26T07:27:41.232Z,95361.40
2023-10-26T07:30:09.755Z,95352.00
2023-10-26T07:32:38.212Z,95351.00
2023-10-26T07:35:06.674Z,95346.60
2023-10-26T07:37:34.827Z,95347.40
2023-10-26T07:40:18.579Z,95347.20
2023-10-26T07:42:51.124Z,95334.20
2023-10-26T07:45:19.850Z,95333.60
2023-10-26T07:47:48.050Z,95336.60
2023-10-26T07:50:21.405Z,95333.20
2023-10-26T07:52:50.047Z,95340.40
2023-10-26T07:55:18.542Z,95336.40
2023-10-26T07:57:47.890Z,95336.60
2023-10-26T08:00:16.304Z,95338.00
2023-10-26T08:02:44.924Z,95340.60
2023-10-26T08:05:13.994Z,95344.80
2023-10-26T08:07:43.201Z,95354.80
2023-10-26T08:10:11.921Z,95348.00
2023-10-26T08:12:40.709Z,95344.00
2023-10-26T08:16:11.134Z,95348.40
2023-10-26T08:17:57.963Z,95353.40
2023-10-26T08:20:26.405Z,95355.60
2023-10-26T08:22:54.658Z,95353.80
2023-10-26T08:25:25.537Z,95356.60
2023-10-26T08:27:54.278Z,95352.20
2023-10-26T08:30:24.654Z,95348.40
2023-10-26T08:32:55.623Z,95345.80
2023-10-26T08:35:24.271Z,95337.80
2023-10-26T08:37:52.640Z,95338.00
2023-10-26T08:40:21.190Z,95337.00
2023-10-26T08:42:49.332Z,95335.40
2023-10-26T08:45:25.334Z,95338.20
2023-10-26T08:47:53.816Z,95339.00
2023-10-26T08:50:23.312Z,95336.20
2023-10-26T08:52:54.452Z,95341.00
2023-10-26T08:55:22.838Z,95350.80
2023-10-26T08:57:53.227Z,95355.40
2023-10-26T09:00:21.635Z,95355.20
2023-10-26T09:02:50.687Z,95353.60
2023-10-26T09:05:19.295Z,95361.40
2023-10-26T09:07:47.770Z,95360.20
2023-10-26T09:10:34.508Z,95357.00
2023-10-26T09:13:07.542Z,95353.00
2023-10-26T09:15:51.495Z,95349.60
2023-10-26T09:18:21.662Z,95350.40
2023-10-26T09:21:07.098Z,95343.60
2023-10-26T09:23:36.620Z,95342.20
2023-10-26T09:26:09.818Z,95343.20
2023-10-26T09:29:04.475Z,95347.40
2023-10-26T09:31:32.913Z,95338.00
2023-10-26T09:34:10.745Z,95346.20
2023-10-26T09:36:39.137Z,95348.00
2023-10-26T09:39:09.894Z,95345.80
2023-10-26T09:41:38.006Z,95345.60
2023-10-26T09:44:06.205Z,95343.00
2023-10-26T09:46:34.683Z,95340.00
2023-10-26T09:49:03.006Z,95341.80
2023-10-26T09:51:31.161Z,95339.80
2023-10-26T09:53:59.451Z,95340.80
2023-10-26T09:56:28.010Z,95335.20
2023-10-26T09:58:56.256Z,95328.00
2023-10-26T10:01:37.050Z,95317.80
2023-10-26T10:04:06.051Z,95321.00
2023-10-26T10:06:54.384Z,95314.00
2023-10-26T10:09:25.343Z,95311.40
2023-10-26T10:12:15.199Z,95311.00
2023-10-26T10:14:58.345Z,95315.20
2023-10-26T10:18:04.305Z,95311.00
2023-10-26T10:20:35.648Z,95299.60
2023-10-26T10:23:04.718Z,95294.00
2023-10-26T10:25:51.418Z,95291.40
2023-10-26T10:28:20.047Z,95288.80
2023-10-26T10:30:59.211Z,95288.80
2023-10-26T10:33:28.848Z,95296.00
2023-10-26T10:36:04.412Z,95293.00
2023-10-26T10:38:35.092Z,95287.80
2023-10-26T10:41:03.444Z,95286.20
2023-10-26T10:43:42.052Z,95281.40
2023-10-26T10:46:16.375Z,95282.40
2023-10-26T10:49:15.953Z,95275.20
2023-10-26T10:51:44.810Z,95272.00
2023-10-26T10:54:26.468Z,95268.40
2023-10-26T10:56:59.151Z,95265.20
2023-10-26T10:59:28.052Z,95274.80
2023-10-26T11:02:11.844Z,95274.60
2023-10-26T11:05:05.402Z,95268.40
2023-10-26T11:07:37.629Z,95271.00
2023-10-26T11:10:06.976Z,95268.60
2023-10-26T11:12:35.128Z,95271.60
2023-10-26T11:15:05.101Z,95273.80
2023-10-26T11:17:33.437Z,95270.40
2023-10-26T11:20:01.723Z,95267.40
2023-10-26T11:22:30.063Z,95264.00
2023-10-26T11:24:58.775Z,95257.00
2023-10-26T11:27:27.220Z,95261.40
2023-10-26T11:30:04.513Z,95255.00
2023-10-26T11:32:32.734Z,95252.80
2023-10-26T11:35:15.142Z,95248.60
2023-10-26T11:38:04.529Z,95242.40
2023-10-26T11:40:33.957Z,95238.20
2023-10-26T11:43:04.561Z,95244.40
2023-10-26T11:45:47.291Z,95246.00
2023-10-26T11:48:32.303Z,95239.00
2023-10-26T11:51:00.883Z,95236.60
2023-10-26T11:53:29.011Z,95229.60
2023-10-26T11:55:57.250Z,95237.40
2023-10-26T11:58:25.392Z,95242.00
2023-10-26T12:00:53.652Z,95241.00
2023-10-26T12:03:22.500Z,95248.80
2023-10-26T12:05:50.796Z,95246.60
2023-10-26T12:08:19.118Z,95249.40
2023-10-26T12:10:47.844Z,95246.80
2023-10-26T12:13:16.018Z,95243.60
2023-10-26T12:15:44.078Z,95241.00
2023-10-26T12:18:12.565Z,95243.40
2023-10-26T12:20:40.667Z,95237.40
2023-10-26T12:23:09.491Z,95231.60
2023-10-26T12:25:37.568Z,95226.20
2023-10-26T12:28:19.794Z,95219.60
2023-10-26T12:30:51.394Z,95213.80
2023-10-26T12:33:20.357Z,95212.20
2023-10-26T12:35:48.575Z,95216.80
2023-10-26T12:38:16.670Z,95214.20
2023-10-26T12:40:45.245Z,95213.20
2023-10-26T12:43:13.486Z,95212.40
2023-10-26T12:45:41.805Z,95210.80
2023-10-26T12:48:10.048Z,95207.60
2023-10-26T12:50:38.161Z,95207.00
2023-10-26T12:53:06.723Z,95210.40
2023-10-26T12:55:35.694Z,95209.20
2023-10-26T12:58:04.000Z,95215.80
2023-10-26T13:00:32.213Z,95218.00
2023-10-26T13:03:00.523Z,95215.40
2023-10-26T13:05:28.743Z,95217.20
2023-10-26T13:07:56.893Z,95220.20
2023-10-26T13:10:25.697Z,95221.40
2023-10-26T13:12:53.962Z,95222.60
2023-10-26T13:15:22.220Z,95228.60
2023-10-26T13:17:50.593Z,95231.60
2023-10-26T13:20:19.070Z,95235.40
2023-10-26T13:22:47.414Z,95237.60
2023-10-26T13:25:15.698Z,95236.60
2023-10-26T13:27:43.958Z,95239.80
2023-10-26T13:30:12.590Z,95237.20
2023-10-26T13:32:43.122Z,95230.40
2023-10-26T13:35:11.926Z,95230.20
2023-10-26T13:37:40.183Z,95225.60
2023-10-26T13:40:09.305Z,95234.00
2023-10-26T13:42:37.439Z,95238.20
2023-10-26T13:45:06.047Z,95234.60
2023-10-26T13:47:34.097Z,95236.20
2023-10-26T13:50:02.188Z,95232.80
2023-10-26T13:52:31.950Z,95236.20
2023-10-26T13:55:00.372Z,95236.40
2023-10-26T13:57:31.305Z,95238.60
2023-10-26T13:59:59.462Z,95244.40
2023-10-26T14:02:27.668Z,95248.40
2023-10-26T14:04:55.881Z,95246.00
2023-10-26T14:07:24.566Z,95248.40
2023-10-26T14:09:53.539Z,95252.00
2023-10-26T14:12:21.942Z,95250.60
2023-10-26T14:14:50.361Z,95258.60
2023-10-26T14:17:18.802Z,95247.20
2023-10-26T14:19:48.355Z,95236.80
2023-10-26T14:22:16.811Z,95238.80
2023-10-26T14:24:45.097Z,95240.20
2023-10-26T14:27:13.788Z,95236.20
2023-10-26T14:29:42.047Z,95231.20
2023-10-26T14:32:10.263Z,95220.60
2023-10-26T14:34:39.314Z,95228.80
2023-10-26T14:37:07.535Z,95234.20
2023-10-26T14:39:35.886Z,95238.40
2023-10-26T14:42:04.465Z,95233.40
2023-10-26T14:44:32.597Z,95240.60
2023-10-26T14:47:02.924Z,95250.40
2023-10-26T14:49:32.302Z,95253.00
2023-10-26T14:52:01.330Z,95255.00
2023-10-26T14:54:29.432Z,95249.80
2023-10-26T14:56:58.157Z,95252.20
2023-10-26T14:59:26.187Z,95254.60
2023-10-26T15:01:54.588Z,95256.00
2023-10-26T15:04:22.802Z,95267.00
2023-10-26T15:06:51.159Z,95273.20
2023-10-26T15:10:19.754Z,95273.80
2023-10-26T15:12:07.926Z,95274.80
2023-10-26T15:14:36.193Z,95267.40
2023-10-26T15:17:04.615Z,95268.00
2023-10-26T15:19:35.093Z,95267.00
2023-10-26T15:22:03.451Z,95273.80
2023-10-26T15:24:32.827Z,95280.00
2023-10-26T15:27:00.901Z,95275.80
2023-10-26T15:29:29.071Z,95275.80
2023-10-26T15:31:57.245Z,95287.60
2023-10-26T15:34:26.367Z,95289.60
2023-10-26T15:36:54.733Z,95287.00
2023-10-26T15:39:22.864Z,95284.60
2023-10-26T15:41:50.888Z,95283.40
2023-10-26T15:44:21.979Z,95279.20
2023-10-26T15:46:50.457Z,95282.40
2023-10-26T15:49:33.587Z,95283.80
2023-10-26T15:52:04.755Z,95273.20
2023-10-26T15:54:33.093Z,95275.40
2023-10-26T15:57:01.953Z,95278.40
2023-10-26T15:59:30.186Z,95280.60
2023-10-26T16:01:58.229Z,95287.80
2023-10-26T16:04:26.492Z,95287.00
2023-10-26T16:06:54.815Z,95285.60
2023-10-26T16:09:23.242Z,95294.20
2023-10-26T16:11:51.249Z,95289.80
2023-10-26T16:14:19.303Z,95291.00
2023-10-26T16:16:47.863Z,95290.00
2023-10-26T16:19:16.036Z,95291.00
2023-10-26T16:21:44.246Z,95294.40
2023-10-26T16:24:13.834Z,95292.80
2023-10-26T16:26:41.904Z,95292.60
2023-10-26T16:29:10.195Z,95287.80
2023-10-26T16:31:38.350Z,95298.00
2023-10-26T16:34:07.093Z,95302.00
2023-10-26T16:36:35.759Z,95299.00
2023-10-26T16:39:04.454Z,95300.80
2023-10-26T16:41:34.816Z,95301.40
2023-10-26T16:44:03.117Z,95293.20
2023-10-26T16:46:34.296Z,95295.60
2023-10-26T16:49:05.150Z,95305.00
2023-10-26T16:51:33.639Z,95307.40
2023-10-26T16:54:04.795Z,95307.40
2023-10-26T16:56:33.064Z,95303.80
2023-10-26T16:59:01.116Z,95308.00
2023-10-26T17:01:29.413Z,95309.80
2023-10-26T17:03:57.658Z,95311.20
2023-10-26T17:06:26.184Z,95310.20
2023-10-26T17:08:56.577Z,95305.00
2023-10-26T17:11:24.714Z,95303.40
2023-10-26T17:13:52.978Z,95301.40
2023-10-26T17:16:21.337Z,95309.00
2023-10-26T17:18:49.590Z,95303.80
2023-10-26T17:21:17.922Z,95305.60
2023-10-26T17:23:45.990Z,95298.20
2023-10-26T17:26:16.750Z,95302.20
2023-10-26T17:28:45.648Z,95297.60
2023-10-26T17:31:14.050Z,95300.40
2023-10-26T17:33:42.095Z,95308.40
2023-10-26T17:36:10.338Z,95320.60
2023-10-26T17:38:40.653Z,95321.60
2023-10-26T17:41:12.513Z,95328.80
2023-10-26T17:43:43.045Z,95327.40
2023-10-26T17:46:15.363Z,95329.20
2023-10-26T17:48:45.696Z,95323.00
2023-10-26T17:51:15.011Z,95319.80
2023-10-26T17:53:43.696Z,95314.00
2023-10-26T17:56:14.453Z,95307.80
2023-10-26T17:58:42.888Z,95311.00
2023-10-26T18:01:11.579Z,95310.00
2023-10-26T18:03:39.884Z,95308.20
2023-10-26T18:06:08.160Z,95313.00
2023-10-26T18:08:39.572Z,95316.80
2023-10-26T18:11:07.637Z,95313.20
2023-10-26T18:13:37.925Z,95322.20
2023-10-26T18:16:12.037Z,95322.80
2023-10-26T18:18:44.262Z,95328.00
2023-10-26T18:21:15.949Z,95331.60
2023-10-26T18:23:46.945Z,95331.60
2023-10-26T18:26:15.889Z,95335.60
2023-10-26T18:28:44.633Z,95327.60
2023-10-26T18:31:16.044Z,95339.00
2023-10-26T18:33:45.398Z,95335.60
2023-10-26T18:36:15.138Z,95336.00
2023-10-26T18:38:46.292Z,95338.20
2023-10-26T18:41:27.891Z,95338.40
2023-10-26T18:43:56.251Z,95339.80
2023-10-26T18:46:27.291Z,95331.80
2023-10-26T18:48:55.570Z,95333.80
2023-10-26T18:51:24.473Z,95337.00
2023-10-26T18:53:52.580Z,95342.20
2023-10-26T18:56:26.431Z,95340.60
2023-10-26T18:58:56.311Z,95339.60
2023-10-26T19:01:26.991Z,95337.60
2023-10-26T19:04:02.708Z,95333.60
2023-10-26T19:06:33.727Z,95332.60
2023-10-26T19:09:01.823Z,95332.80
2023-10-26T19:11:30.025Z,95334.60
2023-10-26T19:13:58.416Z,95329.20
2023-10-26T19:16:26.688Z,95331.20
2023-10-26T19:18:58.991Z,95328.00
2023-10-26T19:21:27.804Z,95328.60
2023-10-26T19:23:55.834Z,95334.40
2023-10-26T19:26:24.075Z,95329.20
2023-10-26T19:28:57.445Z,95325.40
2023-10-26T19:31:25.678Z,95334.60
2023-10-26T19:33:53.794Z,95337.80
2023-10-26T19:36:22.283Z,95337.00
2023-10-26T19:38:50.445Z,95337.40
2023-10-26T19:41:19.145Z,95339.00
2023-10-26T19:43:47.228Z,95338.20
2023-10-26T19:46:18.158Z,95353.20
2023-10-26T19:48:48.913Z,95357.00
2023-10-26T19:51:17.030Z,95348.20
2023-10-26T19:53:48.353Z,95352.40
2023-10-26T19:56:16.392Z,95350.40
2023-10-26T19:58:44.610Z,95347.60
2023-10-26T20:01:16.451Z,95345.60
2023-10-26T20:03:45.860Z,95335.20
2023-10-26T20:06:14.012Z,95334.60
2023-10-26T20:08:42.306Z,95333.80
2023-10-26T20:11:10.723Z,95333.60
2023-10-26T20:13:38.898Z,95323.00
2023-10-26T20:16:07.091Z,95319.40
2023-10-26T20:18:39.841Z,95321.00
2023-10-26T20:21:09.135Z,95316.00
2023-10-26T20:23:37.199Z,95304.20
2023-10-26T20:26:05.661Z,95299.00
2023-10-26T20:28:33.825Z,95301.00
2023-10-26T20:31:02.014Z,95302.60
2023-10-26T20:33:30.454Z,95309.60
2023-10-26T20:35:58.576Z,95316.80
2023-10-26T20:38:27.576Z,95321.40
2023-10-26T20:40:55.569Z,95325.40
2023-10-26T20:43:23.889Z,95335.20
2023-10-26T20:45:59.313Z,95339.80
2023-10-26T20:48:28.803Z,95348.40
2023-10-26T20:50:59.471Z,95348.40
2023-10-26T20:53:29.119Z,95339.00
2023-10-26T20:56:00.822Z,95339.00
2023-10-26T20:58:29.698Z,95330.20
2023-10-26T21:00:58.089Z,95325.40
2023-10-26T21:03:26.470Z,95327.80
2023-10-26T21:05:54.646Z,95328.20
2023-10-26T21:08:23.144Z,95320.80
2023-10-26T21:10:51.457Z,95323.80
2023-10-26T21:13:19.751Z,95314.80
2023-10-26T21:15:48.249Z,95313.80
2023-10-26T21:18:16.444Z,95305.80
2023-10-26T21:20:44.505Z,95304.80
2023-10-26T21:23:12.486Z,95306.20
2023-10-26T21:25:40.609Z,95298.80
2023-10-26T21:28:09.408Z,95289.60
2023-10-26T21:30:38.647Z,95284.00
2023-10-26T21:33:06.812Z,95282.40
2023-10-26T21:35:38.793Z,95294.40
2023-10-26T21:38:09.628Z,95291.40
2023-10-26T21:40:41.212Z,95292.00
2023-10-26T21:43:10.763Z,95284.00
2023-10-26T21:45:39.100Z,95285.40
2023-10-26T21:48:07.238Z,95277.00
2023-10-26T21:50:35.522Z,95283.40
2023-10-26T21:53:04.389Z,95282.00
2023-10-26T21:55:34.346Z,95276.20
2023-10-26T21:58:02.963Z,95269.80
2023-10-26T22:00:32.258Z,95255.20
2023-10-26T22:03:00.982Z,95250.20
2023-10-26T22:05:29.583Z,95250.40
2023-10-26T22:07:57.638Z,95252.00
2023-10-26T22:10:25.948Z,95256.60
2023-10-26T22:12:54.762Z,95258.20
2023-10-26T22:15:23.309Z,95251.00
2023-10-26T22:17:51.460Z,95241.40
2023-10-26T22:20:19.766Z,95247.60
2023-10-26T22:22:47.736Z,95252.40
2023-10-26T22:25:16.130Z,95250.20
2023-10-26T22:27:44.283Z,95242.20
2023-10-26T22:30:13.043Z,95241.20
2023-10-26T22:32:41.336Z,95232.80
2023-10-26T22:35:10.328Z,95229.40
2023-10-26T22:37:39.227Z,95227.80
2023-10-26T22:40:07.875Z,95225.20
2023-10-26T22:42:36.306Z,95222.00
2023-10-26T22:45:04.832Z,95233.20
2023-10-26T22:47:33.235Z,95235.60
2023-10-26T22:50:01.616Z,95229.80
2023-10-26T22:52:29.702Z,95215.80
2023-10-26T22:54:59.112Z,95221.60
2023-10-26T22:57:29.047Z,95236.00
2023-10-26T22:59:57.459Z,95239.60
2023-10-26T23:02:25.729Z,95226.80
2023-10-26T23:04:54.298Z,95225.80
2023-10-26T23:07:22.567Z,95222.60
2023-10-26T23:09:50.576Z,95201.20
2023-10-26T23:12:18.718Z,95203.40
2023-10-26T23:14:46.987Z,95194.20
2023-10-26T23:17:15.356Z,95192.00
2023-10-26T23:19:43.886Z,95187.80
2023-10-26T23:22:12.358Z,95190.60
2023-10-26T23:24:40.520Z,95192.40
2023-10-26T23:27:08.720Z,95203.00
2023-10-26T23:29:36.990Z,95220.40
2023-10-26T23:32:05.797Z,95212.20
2023-10-26T23:34:34.112Z,95197.60
2023-10-26T23:37:02.431Z,95206.20
2023-10-26T23:39:30.906Z,95201.20
2023-10-26T23:41:59.100Z,95208.00
2023-10-26T23:44:27.815Z,95208.80
2023-10-26T23:46:55.757Z,95208.20
2023-10-26T23:49:24.296Z,95205.60
2023-10-26T23:51:52.321Z,95188.80
2023-10-26T23:54:22.550Z,95187.40
2023-10-26T23:56:51.172Z,95182.80
2023-10-26T23:59:19.539Z,95188.00
